Time;durP1;ratioP1;P1;durP2;ratioP2;P2;SDS_P1;SDS_P2;PMS_P1;PMS_P2;Temp;Humidity;BMP_temperature;BMP_pressure;BME280_temperature;BME280_humidity;BME280_pressure;Samples;Min_cycle;Max_cycle;Signal;HPM_P1;HPM_P2
2023/04/13 00:01:59;;;;;;;2.73;2.20;;;;;;;12.94;52.98;97617.44;6999604;28;20205;-78
2023/04/13 00:05:22;;;;;;;3.57;2.50;;;;;;;13.36;52.19;97665.44;6999975;28;20785;-78
2023/04/13 00:08:43;;;;;;;3.70;2.20;;;;;;;13.15;53.02;97652.66;6999646;28;20301;-78
2023/04/13 00:12:05;;;;;;;2.27;1.70;;;;;;;13.12;52.87;97663.19;6998709;28;20755;-78
2023/04/13 00:15:28;;;;;;;2.73;2.47;;;;;;;13.04;52.98;97677.94;6999951;28;20234;-78
2023/04/13 00:18:51;;;;;;;1.40;1.40;;;;;;;12.99;52.91;97674.34;7000332;28;20269;-78
2023/04/13 00:22:12;;;;;;;1.50;1.40;;;;;;;12.61;53.89;97682.34;6999026;28;20559;-78
2023/04/13 00:25:34;;;;;;;1.50;1.40;;;;;;;12.63;53.89;97686.44;6998209;28;20229;-78
2023/04/13 00:28:55;;;;;;;1.70;1.60;;;;;;;12.10;54.73;97677.13;6999431;28;20188;-78
2023/04/13 00:32:18;;;;;;;1.57;1.47;;;;;;;12.11;54.58;97684.97;6998708;28;20226;-78
2023/04/13 00:35:40;;;;;;;1.67;1.37;;;;;;;12.19;54.51;97689.16;6999255;28;20316;-78
2023/04/13 00:39:02;;;;;;;1.50;1.40;;;;;;;11.88;54.16;97674.28;6999580;28;20233;-78
2023/04/13 00:42:24;;;;;;;1.90;1.23;;;;;;;12.18;54.30;97657.81;6997911;28;20204;-78
2023/04/13 00:45:45;;;;;;;1.57;1.47;;;;;;;12.62;52.77;97665.88;6998911;28;20269;-78
2023/04/13 00:49:08;;;;;;;1.53;1.43;;;;;;;12.67;52.68;97682.19;6997990;28;20202;-78
2023/04/13 00:52:30;;;;;;;2.10;2.00;;;;;;;12.41;53.44;97672.03;6998109;28;20589;-78
2023/04/13 00:55:52;;;;;;;1.77;1.67;;;;;;;12.68;52.89;97691.94;6998524;28;20230;-78
2023/04/13 00:59:13;;;;;;;2.73;2.00;;;;;;;12.37;53.73;97689.78;6998759;28;20302;-78
2023/04/13 01:02:35;;;;;;;2.87;1.83;;;;;;;12.28;54.18;97693.13;6997477;28;20204;-77
2023/04/13 01:06:08;;;;;;;1.80;1.70;;;;;;;12.33;54.00;97704.84;7011005;28;20283;-78
2023/04/13 01:09:32;;;;;;;1.83;1.63;;;;;;;11.71;55.64;97705.78;6999452;28;20206;-79
2023/04/13 01:13:03;;;;;;;2.07;1.47;;;;;;;12.02;53.99;97696.41;6998037;28;20291;-78
2023/04/13 01:16:27;;;;;;;3.03;2.17;;;;;;;12.23;54.21;97696.53;6983646;28;20307;-78
2023/04/13 01:19:52;;;;;;;1.90;1.73;;;;;;;12.33;54.03;97699.44;6970094;28;21164;-79
2023/04/13 01:23:28;;;;;;;1.70;1.60;;;;;;;12.29;53.67;97692.91;6968993;28;20294;-79
2023/04/13 01:27:06;;;;;;;2.80;1.60;;;;;;;12.75;52.17;97705.31;6969246;28;20186;-79
2023/04/13 01:30:31;;;;;;;1.67;1.60;;;;;;;12.57;52.22;97705.56;6970613;28;20233;-78
2023/04/13 01:33:52;;;;;;;4.47;1.93;;;;;;;12.87;51.67;97695.22;6970334;28;20229;-78
2023/04/13 01:37:16;;;;;;;1.83;1.70;;;;;;;12.65;51.62;97692.44;6970373;28;20259;-78
2023/04/13 01:40:40;;;;;;;1.47;1.47;;;;;;;12.75;51.17;97683.69;6978092;28;20221;-78
2023/04/13 01:44:01;;;;;;;1.60;1.50;;;;;;;12.72;51.47;97694.97;6997953;28;20226;-79
2023/04/13 01:47:25;;;;;;;1.73;1.50;;;;;;;12.77;51.77;97678.84;6997260;28;20209;-78
2023/04/13 01:50:50;;;;;;;1.63;1.53;;;;;;;12.68;51.31;97662.19;6996665;28;20588;-78
2023/04/13 01:54:13;;;;;;;2.10;1.53;;;;;;;12.51;51.98;97668.69;6997503;28;20351;-78
2023/04/13 01:57:36;;;;;;;1.67;1.47;;;;;;;12.40;52.08;97664.97;6981597;28;20207;-79
2023/04/13 02:00:58;;;;;;;2.00;1.70;;;;;;;12.31;52.32;97654.78;6968818;28;20259;-79
2023/04/13 02:04:21;;;;;;;1.70;1.43;;;;;;;12.27;52.63;97664.47;6969165;28;20692;-78
2023/04/13 02:07:43;;;;;;;2.23;1.67;;;;;;;12.25;52.76;97670.13;6969910;28;20210;-78
2023/04/13 02:11:06;;;;;;;1.97;1.80;;;;;;;12.19;53.42;97673.78;6968799;28;20227;-79
2023/04/13 02:14:28;;;;;;;1.80;1.70;;;;;;;11.93;54.21;97678.94;6969343;28;20364;-79
2023/04/13 02:17:49;;;;;;;1.50;1.40;;;;;;;11.56;55.40;97669.53;6969150;28;20210;-77
2023/04/13 02:21:12;;;;;;;3.67;2.60;;;;;;;11.21;57.31;97682.28;6968452;28;20688;-79
2023/04/13 02:24:34;;;;;;;5.33;2.37;;;;;;;10.93;57.12;97685.66;6969131;28;20587;-78
2023/04/13 02:27:56;;;;;;;1.70;1.60;;;;;;;11.18;56.04;97680.03;6969211;28;20299;-78
2023/04/13 02:31:19;;;;;;;2.30;1.60;;;;;;;10.97;55.67;97683.31;6967669;28;20226;-78
2023/04/13 02:34:41;;;;;;;6.60;1.70;;;;;;;11.37;53.93;97678.81;6968142;28;20765;-78
2023/04/13 02:38:03;;;;;;;1.70;1.60;;;;;;;11.27;53.69;97682.13;6968474;28;20213;-78
2023/04/13 02:41:25;;;;;;;2.17;1.70;;;;;;;11.48;52.44;97678.81;6967817;28;20669;-78
2023/04/13 02:44:48;;;;;;;1.50;1.40;;;;;;;11.72;52.17;97668.78;6968134;28;20694;-78
2023/04/13 02:48:10;;;;;;;5.70;1.70;;;;;;;11.94;51.29;97672.47;6968793;28;20679;-78
2023/04/13 02:51:32;;;;;;;2.53;1.80;;;;;;;12.06;51.01;97670.56;6976647;28;20241;-78
2023/04/13 02:54:55;;;;;;;1.50;1.40;;;;;;;12.21;50.89;97668.16;6996411;28;20261;-78
2023/04/13 02:58:18;;;;;;;1.70;1.60;;;;;;;12.08;50.82;97647.63;6996345;28;20208;-78
2023/04/13 03:01:40;;;;;;;1.80;1.70;;;;;;;11.76;51.56;97659.97;6995643;28;20239;-78
2023/04/13 03:05:03;;;;;;;1.77;1.67;;;;;;;11.81;51.93;97680.88;6995561;28;20265;-78
2023/04/13 03:08:24;;;;;;;1.60;1.50;;;;;;;11.87;52.28;97683.41;6996081;28;20588;-78
2023/04/13 03:11:47;;;;;;;1.63;1.53;;;;;;;12.01;51.79;97694.75;6995567;28;20226;-78
2023/04/13 03:15:10;;;;;;;1.80;1.70;;;;;;;12.23;51.56;97685.72;6995667;28;20344;-78
2023/04/13 03:18:32;;;;;;;1.83;1.60;;;;;;;12.18;51.96;97680.25;6996015;28;20279;-78
2023/04/13 03:21:53;;;;;;;1.80;1.70;;;;;;;11.87;52.29;97691.53;6994892;28;20205;-79
2023/04/13 03:25:15;;;;;;;3.00;2.10;;;;;;;12.00;52.01;97690.44;6995561;28;20230;-78
2023/04/13 03:28:38;;;;;;;2.03;1.80;;;;;;;11.80;52.34;97698.94;6995615;28;20216;-78
2023/04/13 03:32:00;;;;;;;1.77;1.67;;;;;;;11.79;52.50;97696.47;6994707;28;20222;-78
2023/04/13 03:35:21;;;;;;;2.00;1.90;;;;;;;12.13;52.01;97692.84;6995880;28;20698;-78
2023/04/13 03:38:42;;;;;;;1.97;1.87;;;;;;;11.72;52.18;97704.72;6995950;28;20209;-78
2023/04/13 03:42:04;;;;;;;1.83;1.70;;;;;;;11.92;51.84;97709.72;6988748;28;20262;-78
2023/04/13 03:45:27;;;;;;;3.83;1.80;;;;;;;11.71;51.77;97697.69;6996696;28;20611;-78
2023/04/13 03:48:48;;;;;;;2.90;2.60;;;;;;;12.00;50.43;97715.56;7000717;28;20262;-78
2023/04/13 03:52:10;;;;;;;1.83;1.73;;;;;;;12.17;50.10;97707.50;6973447;28;20295;-78
2023/04/13 03:55:31;;;;;;;1.77;1.70;;;;;;;12.05;49.88;97723.75;7000144;28;20230;-78
2023/04/13 03:58:53;;;;;;;1.70;1.60;;;;;;;12.19;48.45;97714.31;7000420;28;20577;-78
2023/04/13 04:02:16;;;;;;;1.87;1.73;;;;;;;12.23;49.13;97718.16;6997377;28;20202;-79
2023/04/13 04:05:38;;;;;;;3.03;2.27;;;;;;;11.80;49.31;97717.03;6995827;28;20222;-78
2023/04/13 04:09:00;;;;;;;2.10;1.70;;;;;;;11.64;49.55;97729.38;6996896;28;20206;-79
2023/04/13 04:12:21;;;;;;;3.70;1.90;;;;;;;11.96;48.27;97721.66;6992916;28;20214;-78
2023/04/13 04:15:42;;;;;;;3.60;1.70;;;;;;;11.96;48.45;97730.59;6999068;28;20237;-78
2023/04/13 04:19:05;;;;;;;2.37;1.90;;;;;;;11.71;47.83;97718.47;6999242;28;20263;-78
2023/04/13 04:22:28;;;;;;;3.20;1.93;;;;;;;11.65;49.16;97733.75;6998231;28;20203;-78
2023/04/13 04:25:50;;;;;;;1.90;1.80;;;;;;;11.98;47.99;97735.78;6998163;28;20226;-78
2023/04/13 04:29:12;;;;;;;2.10;1.80;;;;;;;11.94;47.55;97729.22;6998991;28;20241;-78
2023/04/13 04:32:35;;;;;;;2.00;1.87;;;;;;;11.87;47.56;97731.22;6998784;28;20697;-79
2023/04/13 04:36:00;;;;;;;4.80;2.07;;;;;;;11.66;47.20;97732.69;7003738;28;20226;-78
2023/04/13 04:39:22;;;;;;;2.27;1.97;;;;;;;12.10;46.22;97736.56;7003548;28;20190;-79
2023/04/13 04:42:44;;;;;;;3.00;2.00;;;;;;;12.41;45.69;97728.78;7003772;28;20202;-78
2023/04/13 04:46:07;;;;;;;3.00;1.70;;;;;;;12.03;46.04;97716.97;7003742;28;20231;-78
2023/04/13 04:49:29;;;;;;;4.13;1.83;;;;;;;12.24;46.41;97714.41;7003517;28;20213;-79
2023/04/13 04:52:51;;;;;;;6.67;1.90;;;;;;;11.86;46.83;97708.78;7001696;28;20290;-78
2023/04/13 04:56:13;;;;;;;5.50;1.97;;;;;;;12.20;46.26;97712.41;6998286;28;20248;-78
2023/04/13 04:59:34;;;;;;;2.30;1.80;;;;;;;11.99;46.52;97727.41;6997561;28;20205;-78
2023/04/13 05:02:56;;;;;;;3.93;1.80;;;;;;;11.88;46.68;97735.56;6997841;28;20254;-78
2023/04/13 05:06:17;;;;;;;3.00;1.77;;;;;;;12.29;45.50;97736.13;6999535;28;20233;-79
2023/04/13 05:09:41;;;;;;;3.63;1.97;;;;;;;12.30;45.52;97731.53;6997748;28;20620;-79
2023/04/13 05:13:02;;;;;;;4.53;2.17;;;;;;;12.80;44.57;97743.28;6997840;28;20367;-79
2023/04/13 05:16:24;;;;;;;5.03;2.03;;;;;;;12.80;44.52;97721.63;6998743;28;20627;-79
2023/04/13 05:19:46;;;;;;;3.67;1.83;;;;;;;12.89;44.75;97739.06;6997665;28;20686;-78
2023/04/13 05:23:08;;;;;;;3.17;2.17;;;;;;;12.73;44.98;97750.69;6997100;28;20198;-80
2023/04/13 05:26:31;;;;;;;4.33;1.93;;;;;;;12.54;45.81;97758.22;6996514;28;20206;-79
2023/04/13 05:29:53;;;;;;;2.73;1.77;;;;;;;12.56;45.68;97755.28;6996867;28;20282;-78
2023/04/13 05:33:15;;;;;;;6.60;2.10;;;;;;;12.45;45.56;97746.16;6996795;28;20237;-78
2023/04/13 05:36:38;;;;;;;4.03;2.43;;;;;;;12.25;46.31;97755.75;6997185;28;20209;-78
2023/04/13 05:39:59;;;;;;;4.13;2.40;;;;;;;12.57;45.36;97749.59;6996757;28;20546;-78
2023/04/13 05:43:22;;;;;;;3.23;2.40;;;;;;;12.22;45.07;97702.22;6997476;28;20340;-79
2023/04/13 05:46:43;;;;;;;3.57;2.17;;;;;;;12.29;45.56;97762.31;6997073;28;20202;-79
2023/04/13 05:50:06;;;;;;;3.23;2.10;;;;;;;12.49;45.91;97766.22;6996846;28;20200;-80
2023/04/13 05:53:28;;;;;;;2.77;2.00;;;;;;;12.34;45.76;97776.75;6997523;28;20296;-77
2023/04/13 05:56:49;;;;;;;3.97;2.77;;;;;;;12.60;45.78;97775.34;7005101;28;20206;-78
2023/04/13 06:00:15;;;;;;;3.23;2.50;;;;;;;13.00;44.40;97779.63;6996052;28;20201;-79
2023/04/13 06:03:37;;;;;;;3.40;2.27;;;;;;;12.43;44.87;97785.28;6992838;28;20217;-79
2023/04/13 06:06:59;;;;;;;3.33;2.80;;;;;;;12.71;44.46;97779.88;6995654;28;20242;-79
2023/04/13 06:10:21;;;;;;;3.00;2.10;;;;;;;12.35;44.82;97770.31;6994644;28;20205;-79
2023/04/13 06:13:42;;;;;;;4.57;2.50;;;;;;;12.73;44.57;97778.56;6996189;28;20678;-79
2023/04/13 06:17:05;;;;;;;3.50;1.80;;;;;;;12.77;44.42;97782.44;6979089;28;20270;-79
2023/04/13 06:20:26;;;;;;;2.10;1.90;;;;;;;13.02;43.82;97785.59;6995774;28;20619;-78
2023/04/13 06:23:49;;;;;;;3.90;2.20;;;;;;;13.01;43.55;97788.56;6995964;28;20217;-79
2023/04/13 06:27:11;;;;;;;2.07;1.70;;;;;;;12.69;43.81;97784.72;6996097;28;20565;-79
2023/04/13 06:30:33;;;;;;;5.77;2.57;;;;;;;13.13;43.36;97802.81;6992308;28;20213;-78
2023/04/13 06:33:55;;;;;;;3.93;2.20;;;;;;;12.69;43.60;97784.72;6995731;28;20408;-78
2023/04/13 06:37:19;;;;;;;3.40;1.80;;;;;;;12.25;44.60;97750.34;6995936;28;20250;-78
2023/04/13 06:40:40;;;;;;;5.33;2.00;;;;;;;12.20;44.66;97788.91;6976285;28;20301;-77
2023/04/13 06:44:02;;;;;;;2.90;1.70;;;;;;;12.10;44.83;97791.41;6987419;28;20235;-78
2023/04/13 06:47:23;;;;;;;5.40;2.50;;;;;;;12.60;44.38;97772.63;6995554;28;20300;-78
2023/04/13 06:50:46;;;;;;;7.20;2.30;;;;;;;13.00;43.25;97786.91;6993307;28;20205;-79
2023/04/13 06:54:08;;;;;;;7.53;2.10;;;;;;;13.23;43.20;97800.28;6994762;28;20229;-79
2023/04/13 06:57:29;;;;;;;3.30;2.03;;;;;;;12.05;44.29;97795.88;6995147;28;20201;-79
2023/04/13 07:00:51;;;;;;;5.30;2.00;;;;;;;12.78;43.39;97781.38;7004530;28;20209;-77
2023/04/13 07:04:12;;;;;;;5.70;2.20;;;;;;;12.87;43.28;97782.59;6994587;28;20223;-79
2023/04/13 07:07:35;;;;;;;1.93;1.83;;;;;;;12.41;43.59;97809.06;6995171;28;20206;-77
2023/04/13 07:10:57;;;;;;;5.23;1.90;;;;;;;12.84;43.90;97810.16;6983927;28;20214;-77
2023/04/13 07:14:18;;;;;;;3.50;1.80;;;;;;;12.59;43.83;97815.09;6994572;28;20247;-77
2023/04/13 07:17:40;;;;;;;2.57;1.90;;;;;;;13.11;43.19;97816.59;6995105;28;20258;-79
2023/04/13 07:21:01;;;;;;;4.57;2.20;;;;;;;12.45;43.94;97811.03;6989691;28;20206;-78
2023/04/13 07:24:25;;;;;;;3.30;1.70;;;;;;;13.03;42.46;97805.34;6978693;28;20716;-78
2023/04/13 07:27:47;;;;;;;1.80;1.70;;;;;;;13.44;41.43;97802.25;7013948;28;20241;-79
2023/04/13 07:31:08;;;;;;;4.87;2.67;;;;;;;13.46;42.65;97800.94;7004029;28;20312;-79
2023/04/13 07:34:30;;;;;;;3.77;1.93;;;;;;;13.02;42.73;97806.41;7000001;28;20282;-79
2023/04/13 07:37:51;;;;;;;4.17;2.07;;;;;;;13.51;42.52;97801.00;6999424;28;20202;-78
2023/04/13 07:41:20;;;;;;;5.77;2.37;;;;;;;13.64;43.01;97807.97;6999252;28;20588;-79
2023/04/13 07:44:42;;;;;;;4.93;1.97;;;;;;;13.35;42.55;97796.44;6999597;28;20706;-80
2023/04/13 07:48:04;;;;;;;3.17;1.97;;;;;;;13.28;42.82;97808.50;6999291;28;20325;-79
2023/04/13 07:51:26;;;;;;;5.07;2.23;;;;;;;13.21;42.65;97807.84;6980157;28;20207;-79
2023/04/13 07:54:48;;;;;;;3.90;2.20;;;;;;;13.41;42.91;97802.75;6972598;28;20235;-80
2023/04/13 07:58:10;;;;;;;4.40;2.13;;;;;;;12.79;44.09;97812.75;6997506;28;20214;-77
2023/04/13 08:01:33;;;;;;;10.00;2.10;;;;;;;13.22;43.07;97820.31;6991733;28;20551;-79
2023/04/13 08:04:55;;;;;;;5.13;2.03;;;;;;;13.74;42.77;97822.47;6999082;28;20262;-77
2023/04/13 08:08:16;;;;;;;6.83;3.20;;;;;;;13.87;42.96;97814.00;6999285;28;20262;-83
2023/04/13 08:11:38;;;;;;;5.27;2.30;;;;;;;14.01;41.85;97807.16;7000252;28;20973;-77
2023/04/13 08:15:00;;;;;;;3.20;1.87;;;;;;;13.33;42.93;97822.13;6998066;28;20227;-78
2023/04/13 08:18:22;;;;;;;8.93;2.87;;;;;;;13.98;43.29;97821.19;6998179;28;20756;-77
2023/04/13 08:21:43;;;;;;;8.33;2.70;;;;;;;13.97;43.31;97830.41;6998730;28;20203;-80
2023/04/13 08:25:06;;;;;;;5.80;3.10;;;;;;;14.24;42.30;97816.97;6998849;28;20236;-78
2023/04/13 08:28:27;;;;;;;4.70;2.17;;;;;;;13.81;42.71;97816.91;6998612;28;20562;-77
2023/04/13 08:31:51;;;;;;;4.93;2.90;;;;;;;14.07;42.61;97821.59;6980298;28;20696;-81
2023/04/13 08:35:13;;;;;;;6.20;2.17;;;;;;;14.61;41.95;97812.53;6993195;28;20251;-78
2023/04/13 08:38:34;;;;;;;6.40;2.77;;;;;;;14.12;42.24;97819.78;6998650;28;20219;-78
2023/04/13 08:41:56;;;;;;;7.57;2.40;;;;;;;14.83;40.07;97824.16;6997692;28;20284;-75
2023/04/13 08:45:18;;;;;;;4.10;2.13;;;;;;;13.98;41.95;97832.03;6997382;28;20247;-77
2023/04/13 08:48:42;;;;;;;6.07;2.30;;;;;;;13.60;42.89;97821.19;6998291;28;20889;-77
2023/04/13 08:52:05;;;;;;;4.83;2.30;;;;;;;14.08;41.53;97826.78;6994319;28;20225;-77
2023/04/13 08:55:29;;;;;;;4.47;2.13;;;;;;;14.00;40.96;97819.09;6977619;28;20233;-77
2023/04/13 08:58:52;;;;;;;4.80;2.30;;;;;;;14.80;40.89;97820.06;6997427;28;20209;-78
2023/04/13 09:02:14;;;;;;;2.60;2.10;;;;;;;14.53;41.19;97816.53;6998179;28;20708;-78
2023/04/13 09:05:39;;;;;;;5.97;2.07;;;;;;;13.97;41.42;97826.88;6997997;28;20266;-77
2023/04/13 09:09:04;;;;;;;5.13;1.90;;;;;;;13.50;43.92;97829.16;6998037;28;20221;-80
2023/04/13 09:12:31;;;;;;;13.63;8.47;;;;;;;13.51;45.15;97817.25;7025468;22;20290;-79
2023/04/13 09:15:53;;;;;;;4.13;2.60;;;;;;;14.19;44.38;97830.44;6975255;28;20242;-79
2023/04/13 09:19:18;;;;;;;6.93;2.40;;;;;;;13.57;45.32;97794.59;6976875;28;20207;-80
2023/04/13 09:22:42;;;;;;;5.63;2.47;;;;;;;14.06;45.86;97830.78;6953638;28;20204;-80
2023/04/13 09:26:06;;;;;;;4.43;2.73;;;;;;;14.64;43.68;97831.03;6976229;28;20208;-80
2023/04/13 09:29:29;;;;;;;5.60;2.30;;;;;;;14.66;43.26;97820.72;6981180;28;20201;-80
2023/04/13 09:33:03;;;;;;;5.40;2.03;;;;;;;14.39;42.28;97820.69;6971236;28;20227;-79
2023/04/13 09:36:28;;;;;;;4.73;2.37;;;;;;;14.88;43.11;97808.78;6962639;28;20214;-79
2023/04/13 09:39:52;;;;;;;4.67;2.03;;;;;;;15.34;41.40;97769.28;6978775;28;20722;-79
2023/04/13 09:43:14;;;;;;;3.43;2.20;;;;;;;15.89;39.76;97740.56;6983529;28;20208;-79
2023/04/13 09:46:37;;;;;;;7.03;2.53;;;;;;;15.96;40.18;97743.03;7004536;28;20584;-79
2023/04/13 09:49:59;;;;;;;5.27;2.47;;;;;;;15.95;39.28;97798.50;6979042;28;20320;-80
2023/04/13 09:53:21;;;;;;;4.60;2.37;;;;;;;16.05;39.92;97796.63;6977421;28;20232;-80
2023/04/13 09:56:45;;;;;;;4.53;1.90;;;;;;;15.65;38.76;97780.13;6985390;28;20254;-79
2023/04/13 10:00:16;;;;;;;4.73;2.03;;;;;;;15.51;39.46;97786.25;6985582;28;20213;-83
2023/04/13 10:03:38;;;;;;;4.60;2.67;;;;;;;14.57;40.21;97779.66;6985115;28;20207;-79
2023/04/13 10:07:00;;;;;;;4.10;1.90;;;;;;;15.20;39.56;97741.72;6987846;28;20223;-78
2023/04/13 10:10:25;;;;;;;2.57;1.90;;;;;;;15.37;38.23;97779.63;6960328;28;20261;-78
2023/04/13 10:13:52;;;;;;;5.40;2.10;;;;;;;14.85;38.13;97754.16;6929430;28;20696;-79
2023/04/13 10:17:37;;;;;;;4.13;2.20;;;;;;;14.40;40.26;97778.94;6947738;28;20217;-93
2023/04/13 10:21:02;;;;;;;7.80;2.53;;;;;;;14.64;40.49;97761.28;6959895;28;20657;-90
2023/04/13 10:24:29;;;;;;;6.87;1.93;;;;;;;14.83;39.38;97781.56;6985881;28;20720;-89
2023/04/13 10:27:58;;;;;;;6.43;1.93;;;;;;;14.59;40.16;97742.28;6958227;28;20262;-89
2023/04/13 10:31:37;;;;;;;4.03;2.10;;;;;;;14.35;41.52;97765.34;6949170;28;20236;-87
2023/04/13 10:35:17;;;;;;;6.27;2.90;;;;;;;14.71;40.99;97767.34;6957524;28;20255;-91
2023/04/13 10:38:43;;;;;;;5.20;1.90;;;;;;;14.54;41.93;97687.13;6959737;28;20260;-77
2023/04/13 10:42:06;;;;;;;8.40;2.50;;;;;;;15.05;40.72;97789.66;7068082;23;20227;-82
2023/04/13 10:45:31;;;;;;;8.50;3.73;;;;;;;14.76;43.55;97774.72;7056393;28;20210;-83
2023/04/13 10:48:57;;;;;;;4.33;2.80;;;;;;;15.29;41.17;97771.94;7063312;28;20225;-83
2023/04/13 10:52:19;;;;;;;5.60;2.77;;;;;;;15.40;41.47;97754.66;7046456;28;20220;-83
2023/04/13 10:55:41;;;;;;;5.13;2.43;;;;;;;15.91;39.48;97772.91;7069846;28;20218;-83
2023/04/13 10:59:03;;;;;;;3.77;2.20;;;;;;;15.81;39.65;97786.47;7057301;28;20267;-84
2023/04/13 11:02:25;;;;;;;4.43;2.30;;;;;;;15.02;41.56;97793.69;7058832;28;20219;-84
2023/04/13 11:05:56;;;;;;;4.87;3.00;;;;;;;15.28;40.69;97792.03;7053146;28;20236;-84
2023/04/13 11:09:21;;;;;;;4.53;2.13;;;;;;;15.34;41.16;97789.09;7051898;28;20574;-84
2023/04/13 11:12:50;;;;;;;4.70;2.20;;;;;;;14.97;42.11;97788.22;7066216;28;20234;-84
2023/04/13 11:16:12;;;;;;;6.77;2.27;;;;;;;15.12;42.47;97749.53;7065313;28;20257;-84
2023/04/13 11:19:34;;;;;;;5.67;2.10;;;;;;;15.35;41.21;97781.78;7046383;28;20293;-84
2023/04/13 11:22:57;;;;;;;4.97;2.20;;;;;;;15.09;41.44;97733.75;7036720;28;20250;-84
2023/04/13 11:26:19;;;;;;;5.60;2.57;;;;;;;15.51;40.40;97762.63;7039397;28;20207;-85
2023/04/13 11:29:57;;;;;;;5.93;2.17;;;;;;;15.42;41.19;97794.06;7036903;28;20295;-85
2023/04/13 11:33:24;;;;;;;3.33;2.30;;;;;;;15.53;41.54;97771.34;7037029;28;20260;-85
2023/04/13 11:36:48;;;;;;;4.47;2.30;;;;;;;15.35;41.12;97760.06;7037353;28;20190;-85
2023/04/13 11:40:19;;;;;;;5.63;2.50;;;;;;;14.88;41.64;97780.81;7036929;28;20202;-85
2023/04/13 11:43:40;;;;;;;6.90;2.23;;;;;;;15.28;39.94;97783.88;7036811;28;20729;-84
2023/04/13 11:47:02;;;;;;;5.00;2.10;;;;;;;15.66;40.24;97764.63;7040247;28;20198;-85
2023/04/13 11:50:25;;;;;;;8.57;2.70;;;;;;;15.97;39.53;97771.84;7053809;28;20278;-85
2023/04/13 11:53:47;;;;;;;4.73;2.80;;;;;;;14.53;44.00;97799.41;7044860;28;20293;-85
2023/04/13 11:57:09;;;;;;;9.47;2.97;;;;;;;13.58;48.05;97793.53;7039549;28;20210;-84
2023/04/13 12:00:32;;;;;;;5.40;2.43;;;;;;;12.65;52.88;97803.31;7054939;28;20295;-83
2023/04/13 12:03:53;;;;;;;6.53;3.20;;;;;;;13.42;52.69;97826.03;7067977;28;20313;-84
2023/04/13 12:07:15;;;;;;;8.33;4.07;;;;;;;14.01;51.94;97838.84;7062840;28;20758;-85
2023/04/13 12:10:38;;;;;;;8.23;3.13;;;;;;;13.94;51.96;97839.06;7060311;28;20205;-84
2023/04/13 12:14:01;;;;;;;3.87;2.70;;;;;;;13.25;51.95;97779.22;7062883;28;20257;-83
2023/04/13 12:17:23;;;;;;;9.30;3.20;;;;;;;12.24;55.66;97754.94;7068358;28;20197;-82
2023/04/13 12:20:47;;;;;;;4.20;2.47;;;;;;;12.95;53.49;97776.84;7068466;28;20204;-85
2023/04/13 12:24:08;;;;;;;6.93;2.57;;;;;;;13.68;53.40;97823.47;7071429;28;20228;-84
2023/04/13 12:27:39;;;;;;;5.43;2.67;;;;;;;13.70;53.49;97802.38;7072027;28;20232;-84
2023/04/13 12:31:03;;;;;;;7.27;2.47;;;;;;;14.01;53.00;97817.19;7064253;28;20197;-83
2023/04/13 12:34:25;;;;;;;4.17;2.07;;;;;;;14.31;52.84;97804.03;7068826;28;20308;-83
2023/04/13 12:37:48;;;;;;;3.80;2.23;;;;;;;14.85;50.89;97813.88;7063064;28;20218;-83
2023/04/13 12:41:10;;;;;;;3.07;1.97;;;;;;;14.81;50.09;97797.28;7071355;28;20207;-83
2023/04/13 12:44:31;;;;;;;3.17;2.20;;;;;;;15.02;50.36;97788.28;7073892;28;20294;-83
2023/04/13 12:47:54;;;;;;;3.73;2.20;;;;;;;15.41;49.90;97794.31;7059745;28;20259;-84
2023/04/13 12:51:16;;;;;;;3.40;2.20;;;;;;;15.37;49.24;97782.34;7047719;28;20209;-83
2023/04/13 12:54:37;;;;;;;3.30;2.00;;;;;;;15.40;49.09;97789.97;7046794;28;20277;-83
2023/04/13 12:57:59;;;;;;;2.83;2.17;;;;;;;15.36;47.60;97778.00;7072847;28;20223;-84
2023/04/13 13:01:21;;;;;;;2.03;1.70;;;;;;;15.00;48.23;97740.75;7068696;28;20228;-84
2023/04/13 13:04:44;;;;;;;5.67;1.90;;;;;;;15.20;47.94;97755.31;7072703;28;20285;-83
2023/04/13 13:08:06;;;;;;;4.47;2.33;;;;;;;15.02;48.82;97790.16;7078136;28;20193;-82
2023/04/13 13:11:28;;;;;;;5.53;2.40;;;;;;;14.99;48.41;97771.69;7080968;28;20227;-83
2023/04/13 13:14:49;;;;;;;4.63;2.43;;;;;;;14.91;48.50;97785.69;7062001;28;20585;-84
2023/04/13 13:18:11;;;;;;;2.60;2.23;;;;;;;14.99;48.99;97793.41;7065596;28;20201;-83
2023/04/13 13:21:34;;;;;;;4.03;2.40;;;;;;;15.24;49.84;97777.31;7064298;28;20229;-83
2023/04/13 13:24:55;;;;;;;5.97;2.90;;;;;;;14.95;49.47;97760.53;7065225;28;20287;-83
2023/04/13 13:28:17;;;;;;;4.13;2.20;;;;;;;15.22;49.04;97777.56;7065102;28;20269;-84
2023/04/13 13:31:40;;;;;;;2.47;2.20;;;;;;;14.21;49.30;97790.38;7057564;28;20288;-83
2023/04/13 13:35:01;;;;;;;2.87;2.03;;;;;;;14.62;52.21;97796.00;7061307;28;20246;-81
2023/04/13 13:38:25;;;;;;;2.37;1.80;;;;;;;15.38;49.93;97798.38;7060869;28;20211;-80
2023/04/13 13:41:46;;;;;;;4.73;2.33;;;;;;;15.24;49.76;97802.59;7065139;28;20218;-83
2023/04/13 13:45:09;;;;;;;2.83;2.03;;;;;;;15.50;47.14;97771.84;7067347;28;20694;-83
2023/04/13 13:48:30;;;;;;;2.57;2.10;;;;;;;15.34;46.55;97721.22;7069532;28;20243;-82
2023/04/13 13:51:52;;;;;;;2.80;2.27;;;;;;;15.83;46.71;97787.00;7067242;28;20281;-83
2023/04/13 13:55:18;;;;;;;2.80;2.20;;;;;;;15.76;47.42;97783.72;7041429;28;20242;-82
2023/04/13 13:58:39;;;;;;;2.50;2.23;;;;;;;15.25;47.97;97787.09;7067101;28;20198;-83
2023/04/13 14:02:01;;;;;;;1.80;1.70;;;;;;;15.61;47.45;97784.44;7056981;28;20204;-81
2023/04/13 14:05:23;;;;;;;4.70;2.50;;;;;;;15.77;46.83;97780.75;7063974;28;20228;-81
2023/04/13 14:08:44;;;;;;;2.93;2.60;;;;;;;15.42;46.54;97791.34;7065135;28;20289;-83
2023/04/13 14:12:07;;;;;;;5.53;3.03;;;;;;;15.55;48.59;97790.06;7065495;28;20213;-83
2023/04/13 14:15:29;;;;;;;3.33;3.00;;;;;;;15.39;48.39;97791.06;7054519;28;20228;-84
2023/04/13 14:18:51;;;;;;;4.20;3.07;;;;;;;15.87;46.94;97778.06;7066186;28;20206;-83
2023/04/13 14:22:12;;;;;;;2.47;2.23;;;;;;;15.67;47.75;97782.53;7057255;28;20277;-81
2023/04/13 14:25:34;;;;;;;4.40;2.80;;;;;;;15.24;49.39;97796.31;7068692;28;20438;-81
2023/04/13 14:28:56;;;;;;;4.17;2.77;;;;;;;15.36;48.62;97788.84;7065252;28;20233;-81
2023/04/13 14:32:18;;;;;;;2.80;2.40;;;;;;;14.52;50.98;97786.94;7069904;28;20271;-81
2023/04/13 14:35:40;;;;;;;3.40;2.67;;;;;;;14.43;52.18;97799.28;7053540;28;20321;-83
2023/04/13 14:39:03;;;;;;;3.67;2.20;;;;;;;13.78;53.07;97795.72;7051705;28;20211;-82
2023/04/13 14:42:28;;;;;;;3.87;2.30;;;;;;;14.43;51.89;97804.72;7052845;28;20730;-83
2023/04/13 14:45:53;;;;;;;2.37;2.17;;;;;;;14.48;51.09;97796.66;7040937;28;20199;-83
2023/04/13 14:49:16;;;;;;;2.07;1.87;;;;;;;14.12;51.07;97803.53;7063182;28;20201;-83
2023/04/13 14:52:38;;;;;;;1.80;1.70;;;;;;;13.45;52.91;97812.84;7061977;28;20219;-84
2023/04/13 14:56:00;;;;;;;3.10;1.70;;;;;;;13.33;53.55;97816.72;7060890;28;20231;-85
2023/04/13 14:59:21;;;;;;;2.40;1.97;;;;;;;13.54;53.55;97815.94;7063771;28;20215;-82
2023/04/13 15:02:44;;;;;;;3.10;2.33;;;;;;;13.38;53.66;97797.81;7061607;28;20274;-83
2023/04/13 15:06:07;;;;;;;2.20;2.00;;;;;;;13.54;53.81;97810.53;7051640;28;20287;-83
2023/04/13 15:09:28;;;;;;;2.70;2.13;;;;;;;13.52;54.00;97802.66;7055529;28;20224;-84
2023/04/13 15:12:50;;;;;;;2.10;1.90;;;;;;;12.74;55.86;97799.13;7045681;28;20267;-82
2023/04/13 15:16:12;;;;;;;2.67;1.90;;;;;;;13.13;55.17;97824.47;7053325;28;20246;-83
2023/04/13 15:19:35;;;;;;;1.73;1.63;;;;;;;13.05;54.88;97820.28;7053133;28;20618;-83
2023/04/13 15:22:57;;;;;;;2.23;2.03;;;;;;;13.15;54.43;97836.69;7049898;28;20287;-83
2023/04/13 15:26:19;;;;;;;2.43;1.90;;;;;;;13.22;55.17;97834.66;7057767;28;20230;-83
2023/04/13 15:29:41;;;;;;;2.43;2.10;;;;;;;13.15;55.07;97796.09;7036711;28;20293;-84
2023/04/13 15:33:03;;;;;;;1.70;1.60;;;;;;;13.49;54.61;97832.09;7063003;28;20311;-83
2023/04/13 15:36:26;;;;;;;4.27;2.00;;;;;;;13.25;54.06;97822.50;7053932;28;20343;-84
2023/04/13 15:39:48;;;;;;;2.90;1.60;;;;;;;13.58;53.63;97828.72;7034359;28;20220;-85
2023/04/13 15:43:09;;;;;;;1.50;1.40;;;;;;;13.59;53.58;97824.16;7036900;28;20787;-83
2023/04/13 15:46:32;;;;;;;2.43;2.23;;;;;;;12.96;54.69;97813.63;7054355;28;20206;-84
2023/04/13 15:49:53;;;;;;;3.83;1.90;;;;;;;12.57;53.94;97749.59;7061260;28;20200;-84
2023/04/13 15:53:16;;;;;;;3.53;1.70;;;;;;;13.58;53.78;97844.19;7051634;28;20714;-84
2023/04/13 15:56:38;;;;;;;2.80;2.10;;;;;;;13.96;53.38;97849.63;7039980;28;20213;-84